KADS/ADS METAR and TAF weather

Enter ICAO airport designator
Station Type Date Time Source
KADS METAR 2018/01/22 19:47 UTC NOAA

KADS 221947Z 30016G27KT 10SM SKC 14/M06 A3000


Station Type Date Time Source
KADS Decoded METAR 2018/01/22 19:47 UTC NOAA

Dallas / Addison Airport, TX, United States (KADS) 32-58N 096-50W
Jan 22, 2018 - 02:47 PM EST / 2018.01.22 1947 UTC
Wind: from the WNW (300 degrees) at 18 MPH (16 KT) gusting to 31 MPH (27 KT):0
Visibility: 10 mile(s):0
Sky conditions: clear
Temperature: 57 F (14 C)
Dew Point: 21 F (-6 C)
Relative Humidity: 24%
Pressure (altimeter): 30 in. Hg (1015 hPa)
ob: KADS 221947Z 30016G27KT 10SM SKC 14/M06 A3000
cycle: 20

Station Type Date Time Source
KADS TAF UTC NOAA

Error!


Example: see airport list